RESULTATS »

INSCRITS PRESENTATS ACABEN RETIRATS DESQUALIFICATS DIST. TRAM 1 DIST. TRAM 2 DIST. TRAM 3 TEMP. EXT TEMP. AIGUA
192 180 169 11 0 5 20 3 0 0

CLASSIFICACIÓ

MASCULÍ FEMENÍ CATEGORIA CLUBS (MASCULINA) CLUBS (FEMENINA) INDIVIDUALS GRUPS D'EDAT

CATEGORIA: JNM
LLOCDORSALNOMCLUBCAT.T.META| P.Tram 1 || P.Tram 2 |Km/hTEMPS| P.Tram 3 |PARC_1PARC_2
1 2033JAN MARGARIT SOLECLUB TRIATLO LLUÇANESJNM01:37:14100:20:291701:06:5817.9201:27:27300:09:4700:00:4400:00:43
2 5858POL ESPINOSA VALEROCLUB NATACIO BANYOLESJNM01:52:171900:22:545401:17:5215.4101:40:464300:11:3100:00:3400:00:29
3 3368MARC GARCIA VILLODRESC. TRIATLO MONTORNESJNM02:11:075500:25:0110501:32:4812.9301:57:4910200:13:1800:00:4100:00:49
4 2010PABLO MITJANS MANAUC.N. TERRASSA-CICLES MOREJNM02:19:237200:25:4313101:38:3312.1802:04:1614900:15:0700:00:4600:00:42
5 5876FIDEL COMPTE RABELLCERRR IGUALADAJNM02:25:477800:26:0914901:47:3211.1602:13:415400:12:0600:01:1700:00:54
6 7010GERARD BATET XAUSFEECJNM02:28:126200:25:2515301:51:0610.8002:16:314600:11:4100:00:4200:00:35
CATEGORIA: SUB23M
LLOCDORSALNOMCLUBCAT.T.META| P.Tram 1 || P.Tram 2 |Km/hTEMPS| P.Tram 3 |PARC_1PARC_2
1 1512SERGI CARDONA ROSANASCLUB TRIATLO LLUÇANESSUB23M01:42:542700:23:192301:09:2017.3101:32:39700:10:1500:00:3900:00:29
2 2271JAIRO GARCIA ALONSOA.C. PARETS RAVET BIKESUB23M01:47:547400:25:482201:09:1317.3401:35:019100:12:5300:00:3700:00:29
3 3336JORDI GARCIA BERMÚDEZGAVA TRIATLOSUB23M01:51:012000:22:544901:16:5515.6001:39:493300:11:1200:00:4000:00:29
4 3240JOAN VILA VILACLUB TRIATLO LLUÇANESSUB23M01:53:404800:24:175101:17:0315.5701:41:206300:12:2000:00:4500:00:33
5 1543JESUS MANUEL SONO RAZURIPRAT TRIATLO 1994SUB23M01:55:017000:25:395301:17:3015.4801:43:095000:11:5200:00:5200:00:38
6 3853JOSEP RUBIO SOLAA.C. PARETS RAVET BIKESUB23M01:56:125300:24:376401:20:0115.0001:44:384500:11:3400:00:4900:00:41
7 1559DANIEL REYES HIDALGOVEC CYCLING & RUNSUB23M02:03:5411300:27:217201:23:1814.4101:50:3910100:13:1500:00:5300:00:44
8 7004ALEX GUTIERREZ SALVADORLLICENCIA DE DIASUB23M02:47:1914900:30:0516202:01:339.8702:31:3815400:15:4100:01:0000:00:47
CATEGORIA: V1M
LLOCDORSALNOMCLUBCAT.T.META| P.Tram 1 || P.Tram 2 |Km/hTEMPS| P.Tram 3 |PARC_1PARC_2
1 8006AGUSTÍ ROC AMADORFEECV1M01:34:25200:20:35701:04:2518.6301:25:00100:09:2500:00:3200:00:31
2 1265ALBERT CAMPS SERRACLUB MEDINA TRIATLOV1M01:36:04700:21:06801:04:4118.5501:25:471000:10:1700:00:3500:00:31
3 2815JOAN CARLES CASTELLA MARCTEAM CALELLA TRIATHLONV1M01:40:333600:23:451201:05:4318.2601:29:282700:11:0500:00:3200:00:24
4 4802CARLES TORRENTS RODRIGUEZCERRR IGUALADAV1M01:43:221700:22:212801:09:5417.1701:32:153100:11:0700:00:4600:00:49
5 5872ALBERT TORRES CARLES C.N. REUS PLOMSV1M01:44:213400:23:382701:09:5117.1801:33:292100:10:5200:00:2900:00:27
6 5967LLUÍS FIGOLS MORALCLUB TRIATLO LLUÇANESV1M01:44:514000:23:522501:09:3417.2501:33:264100:11:2500:00:5000:00:37
7 261ALBERTO JIMENEZ HERNANDEZCLUB MEDINA TRIATLOV1M01:45:523100:23:313501:11:0816.8701:34:393400:11:1300:00:5600:00:41
8 7009IVAN OULEGO MORENOLLICENCIA DE DIAV1M01:47:475400:24:542901:10:1717.0701:35:117200:12:3600:00:0000:00:00
9 2808PEDRO J. OLIVEROS OLIVEROCLUB TRIATLO GRANOLLERSV1M01:47:533500:23:423901:13:0616.4201:36:482600:11:0500:00:3400:00:28
10 709GERMÀ BARROSO I PUJOLC.E. RAYOTEAMV1M01:48:212500:23:124001:13:2216.3601:36:344900:11:4700:00:3600:00:36
11 1550RICARD VALL MALETVEC CYCLING & RUNV1M01:49:144900:24:213701:12:1216.6201:36:338100:12:4100:00:5000:00:37
12 1154TONI CASALS CASTELLARC.N. VIC-ETBV1M01:49:513200:23:344401:15:2815.9001:39:022000:10:4900:00:4000:00:35
13 3416XAVI PADRÓS FRANQUESAC.N. VIC-ETBV1M01:50:381300:21:554601:16:0215.7801:37:578000:12:4100:00:3700:00:30
14 3242XAVI ABRIL DURANCLUB MEDINA TRIATLOV1M01:50:442800:23:204801:16:2915.6901:39:492300:10:5500:00:4700:00:55
15 1112JOSE MARIA RODRIGUEZ CARMCLUB TRIATLO GRANOLLERSV1M01:55:298100:26:164701:16:2815.6901:42:448400:12:4500:00:4300:00:32
16 3269ABEL BLANQUE PARCERISAINDEPENDENTV1M01:55:4612200:27:454301:15:1415.9501:42:598600:12:4700:01:0100:00:55
17 3288JOSÉ ANTONIO MALLEN ROMERCERRR IGUALADAV1M01:56:197500:25:495601:18:0315.3701:43:526400:12:2700:00:5900:00:47
18 1429ROGER FARNES MALASCLUB TRIATLO GRANOLLERSV1M01:57:124400:23:576801:22:0914.6101:46:063000:11:0600:00:4000:00:37
19 619OSCAR PUNTI FIESTASCLUB NATACIO RUBIV1M01:57:468300:26:176001:18:5015.2201:45:077500:12:3900:00:5000:00:38
20 2273FRANCESC PADRO BAROT-BIKES CLUB TRIATLOV1M01:58:479200:26:416201:19:2515.1101:46:067900:12:4100:01:0300:00:37
21 1535MANEL HIDALGO ÁLVAREZVEC CYCLING & RUNV1M01:59:106400:25:286501:21:0814.7901:46:366900:12:3400:00:4500:00:55
22 7001ISMAEL LOPEZ VEGALLICENCIA DE DIAV1M02:00:075800:25:147101:22:3314.5401:47:476200:12:2000:00:0000:00:00
23 2496VICTOR SANCHO GARRIGACLUB TRIATLÓ LLEIDAV1M02:00:287300:25:446701:22:0714.6101:47:517300:12:3700:00:4900:00:37
24 7015JOSE FELIX DURAN FERNANDELLICENCIA DE DIAV1M02:03:324500:23:589201:28:2013.5801:52:183500:11:1400:01:1800:01:02
25 5944JORDI ROSSELLÓ GONZÁLEZCLUB TRIATLÓ LLEIDAV1M02:03:455700:25:137901:25:1214.0801:50:2510500:13:2000:00:5900:00:55
26 8005JUANJO GALLARDO GONZALEZFEECV1M02:04:366700:25:307801:24:5214.1401:50:2212900:14:1400:01:0600:00:45
27 2477RAFAEL HIERRO PEREZCLUB NATACIO RUBIV1M02:06:3911000:27:158101:25:2414.0501:52:3912500:14:0000:00:4800:00:36
28 350JOAN MONTEJO CUNILLERASTRIATLO PALLEJAV1M02:07:1810000:27:039101:28:1013.6101:55:135300:12:0500:00:5300:00:44
29 435CARLOS MENDEZ VILLALVILLASOC ATLETICA CORBERAV1M02:07:469700:26:578801:27:2813.7201:54:2510700:13:2100:01:0000:01:03
30 1039CARLES SABATER CASALSC.N. SABADELLV1M02:07:557900:26:119701:29:3513.4001:55:465900:12:0900:00:5300:00:38
31 7014TINO PALENCIA COLLADOFEECV1M02:08:0311400:27:249001:27:5913.6401:55:237700:12:4000:00:0000:00:00
32 2673OSCAR RAMON IBAÑEZCLUB TRIATLÓ LLEIDAV1M02:08:0714500:29:077501:24:2514.2201:53:3213900:14:3500:00:4500:00:34
33 2664DAVID OTAL DE SANROMACLUB TRIATLO GRANOLLERSV1M02:08:216900:25:389601:29:3113.4101:55:099900:13:1200:00:4500:00:44
34 3253ÒSCAR FERNÁNDEZSOC ATLETICA CORBERAV1M02:12:4210700:27:1410001:31:0713.1701:58:2113300:14:2100:01:4300:00:59
35 1766EMILIO BLANCO NEBREDAPRAT TRIATLO 1994V1M02:12:438400:26:1910801:33:4012.8101:59:598300:12:4400:00:4500:00:34
36 1393XAVIER RODRIGUEZ DE MIQUECLUB NATACIO RUBIV1M02:12:439400:26:4110401:32:1813.0001:58:5911800:13:4400:01:0800:01:03
37 4944CARLES MARTINEZ SANCHEZT-BIKES CLUB TRIATLOV1M02:13:028900:26:3010901:33:4012.8102:00:109000:12:5200:01:1800:01:09
38 5999ANTONIO LORENTE SANCHEZCASBOI TRIATLOV1M02:14:0213300:28:2210101:31:1513.1501:59:3713400:14:2500:01:0100:00:43
39 3880CARLOS PARDOS MARINCLUB NATACIO RUBIV1M02:14:4812800:28:0910601:33:0312.9002:01:1211200:13:3600:01:0400:00:45
40 3916DAVID SABARIEGOS CANOCLUB ATLETISME OLESAV1M02:15:0213800:28:4310201:32:0013.0402:00:4313100:14:1900:00:4500:00:41
41 3380MIGUEL ANGEL RIOS ORTEGAVEC CYCLING & RUNV1M02:16:008200:26:1611301:35:4512.5302:02:0112300:13:5900:01:1100:01:04
42 8004ALEJANDRO PONS SOLELLICENCIA DE DIAV1M02:16:248600:26:2512101:36:5312.3902:03:189600:13:0600:01:0800:01:27
43 8012SERGIO LOPEZ MARTINEZLLICENCIA DE DIAV1M02:17:3811700:27:2812501:37:4112.2802:05:096600:12:2900:01:1700:00:59
44 3650JOSÉ MIGUEL TERNERO MORILCERRR IGUALADAV1M02:17:405600:25:0213601:40:4011.9202:05:425100:11:5800:01:0100:00:48
45 8010JOSE MOLINAFEECV1M02:18:2914400:29:0611201:35:4012.5402:04:4611700:13:4300:00:5600:00:33
46 3308DIEGO MEDINA RUEDAVEC CYCLING & RUNV1M02:18:3814100:28:5611701:36:0812.4802:05:0411100:13:3400:00:5800:01:03
47 5805JOSE ANTONIO TROYA GARCÍACASBOI TRIATLOV1M02:18:5911800:27:3012801:37:5912.2502:05:2910900:13:3000:01:0900:01:18
48 7017DAVID IGLESIAS CABEROLLLICENCIA DE DIAV1M02:19:1114600:29:1411501:35:5712.5102:05:1112600:14:0000:01:1300:00:54
49 3325OLIVIER JAMETINDEPENDENTV1M02:20:117600:25:5913901:41:4011.8002:07:396800:12:3200:00:5400:00:47
50 1258ALBERT JIMENEZ ESTRADASOC ATLETICA CORBERAV1M02:21:1114700:29:5411801:36:1112.4802:06:0514800:15:0600:00:5700:00:53
51 3348RAUL GUARDIOLA ROCACAMBRILS CLUB TRIATLOV1M02:25:1513600:28:2814201:42:0411.7602:10:3214300:14:4300:00:5800:00:53
52 2837ELOI JULIA BONMATITRIATLO GIRONA COSTA BRAVV1M02:26:0215600:31:4112401:37:3312.3002:09:1416300:16:4800:01:4500:01:17
53 7013JOSE LUIS REYES PONCEFEECV1M02:26:1316300:34:1311901:36:2912.4402:10:4215200:15:3100:00:0000:00:00
54 7006RAMON FERNANDEZ FARRUGGIALLICENCIA DE DIAV1M02:28:1812500:27:5214601:45:5211.3402:13:4413800:14:3400:01:1700:01:41
55 2682FRANCESC LUGO GUTIERREZCLUB MEDINA TRIATLOV1M02:31:1414300:28:5715101:48:4411.0402:17:4111000:13:3300:00:4600:00:45
56 8011ESTEBAN MARIN PERISLLICENCIA DE DIAV1M02:31:5512900:28:0914501:44:1411.5102:12:2316900:19:3200:01:0300:01:04
57 3600DANIEL MIRÓ FUENTESTRI2WINV1M02:37:1514800:30:0215401:51:2910.7602:21:3115600:15:4400:00:5100:00:48
CATEGORIA: V2M
LLOCDORSALNOMCLUBCAT.T.META| P.Tram 1 || P.Tram 2 |Km/hTEMPS| P.Tram 3 |PARC_1PARC_2
1 867SANTI BARRERA MARTINEZPRAT TRIATLO 1994V2M01:47:442300:23:034101:14:0016.2201:37:031600:10:4100:00:4300:00:35
2 800ALBERT PUYAL MASGORETCLUB MEDINA TRIATLOV2M01:55:496300:25:265701:18:1615.3301:43:425600:12:0700:01:0000:00:41
3 996SANTI RIBOT TERRICABRASCLUB TRIATLO GRANOLLERSV2M01:57:036100:25:246301:19:2815.1001:44:526100:12:1100:00:4600:00:37
4 161LLUÍS AMAT TARDIUSOC ATLETICA CORBERAV2M02:03:268700:26:267701:24:3014.2001:50:566700:12:3000:00:5600:00:40
5 877MANEL VIVANCOS GONZALEZCERRR IGUALADAV2M02:12:4713400:28:2510301:32:1613.0102:00:415500:12:0600:00:5200:00:40
6 3353SERGI SANCHEZ GRAUC.N. REUS PLOMSV2M02:13:176600:25:2911001:34:1012.7401:59:3911500:13:3800:00:5100:00:41
7 4461JOAN ARAGONES GORDIC.N. MATAROV2M02:16:2313200:28:2010701:33:3512.8202:01:5513700:14:2800:01:1000:00:55
8 1427ESTEBAN ARAUZO PALACIOSC.E.T. DISTANCEV2M02:19:375900:25:1514401:42:3611.7002:07:514700:11:4600:01:0600:00:52
9 1340ALEX ALDOMA BRUFAUCLUB TRIATLO VALLIRANAV2M02:22:5710200:27:0714301:42:1311.7402:09:2011400:13:3700:01:1900:01:28
10 3260JOAN JOSEP ALBALADEJO CABCLUB TRIATLO VALLIRANAV2M02:31:0110600:27:1215001:47:5911.1102:15:1115700:15:5000:00:4300:00:29
11 880ELISEO REDON REDONCEMEV2M02:34:1213100:28:1715501:51:5910.7202:20:1612100:13:5600:01:0600:00:49
12 2335SALVADOR PONCE ZAMUDIOCERRR IGUALADAV2M02:39:0915200:31:0915601:52:1810.6902:23:2715500:15:4200:01:2200:01:04
13 2174RAMON PICAS FARRIOLSCLUB TRIATLO LLUÇANESV2M02:44:3316400:34:2115701:53:3510.5602:27:5616100:16:3700:01:3800:01:10
14 2484DAVID PARDO ESTADELLAINDEPENDENTV2M02:53:2215400:31:3816402:06:089.5102:37:4615300:15:3600:01:1200:00:47
CATEGORIA: V3M
LLOCDORSALNOMCLUBCAT.T.META| P.Tram 1 || P.Tram 2 |Km/hTEMPS| P.Tram 3 |PARC_1PARC_2
1 1159MIGUEL ANGEL MARTINEZ ALFPRAT TRIATLO 1994V3M02:05:256000:25:178701:27:2613.7201:52:438200:12:4200:00:5500:00:56
CATEGORIA: SUB23F
LLOCDORSALNOMCLUBCAT.T.META| P.Tram 1 || P.Tram 2 |Km/hTEMPS| P.Tram 3 |PARC_1PARC_2
1 1806ARANTXA SALVADO VERGESPRAT TRIATLO 1994SUB23F02:34:1616000:32:1614801:47:0611.2002:19:2214500:14:5400:00:5100:00:43
2 4021LUCIA OSCOZ MACAYACLUB TRIATLÓ LLEIDA SUB23F03:00:2616100:32:1616602:13:139.0102:45:2914600:14:5700:00:5400:00:40
3 1827MARINA CASTELLS CODINACLUB TRIATLÓ LLEIDASUB23F03:15:3116800:36:5316802:19:468.5902:56:3916800:18:5200:00:5300:00:50
CATEGORIA: V1F
LLOCDORSALNOMCLUBCAT.T.META| P.Tram 1 || P.Tram 2 |Km/hTEMPS| P.Tram 3 |PARC_1PARC_2
1 3558TERESA PONS MUNILLPRAT TRIATLO 1994V1F02:04:4811100:27:207601:24:2814.2101:51:489400:13:0000:00:4500:00:49
2 1810PILAR GUTÉS NAVARROPRAT TRIATLO 1994V1F02:30:5011200:27:2115201:49:0311.0002:16:2413600:14:2600:01:1100:00:48
3 5172MONICA OLIVER HERREROPRAT TRIATLO 1994V1F02:32:2516500:34:3314001:41:4411.8002:16:1715800:16:0800:01:0200:00:48
4 5028ADRIANA TARRE CASABLANCASCLUB TRIATLO GRANOLLERSV1F03:03:1316900:37:5716502:07:459.3902:45:4216600:17:3100:00:5000:00:41
CATEGORIA: ABM
LLOCDORSALNOMCLUBCAT.T.META| P.Tram 1 || P.Tram 2 |Km/hTEMPS| P.Tram 3 |PARC_1PARC_2
1 224ALBERT SOLEY CASTELLST-BIKES CLUB TRIATLOABM01:32:20300:20:54201:01:2519.5401:22:19600:10:0100:00:2400:00:21
2 1220CARLOS PORTILLA PARRILLAC.N. REUS PLOMSABM01:33:011000:21:36101:01:0919.6201:22:45900:10:1600:00:3100:00:25
3 3895XAVIER MADRONA VILACLUB TRIATLO LLUÇANESABM01:33:141100:21:38301:01:3619.4801:23:14500:10:0000:00:3100:00:26
4 1647ANIBAL FIDALGO LOPEZCLUB MEDINA TRIATLOABM01:33:34600:21:04501:02:1119.3001:23:151200:10:1900:00:3400:00:28
5 826OMAR MARTINEZ OSUNACLUB TRIATLO LLUÇANESABM01:34:09500:20:58601:03:3518.8701:24:33200:09:3600:00:3200:00:27
6 1389EVER ALEJANDRO GOMEZ DIAZCLUB MEDINA TRIATLOABM01:34:47900:21:35401:02:0619.3201:23:412900:11:0600:00:3700:00:31
7 436JORDI BONET NIETOT-BIKES CLUB TRIATLOABM01:36:04400:20:571001:04:4618.5301:25:431300:10:2100:00:3400:00:25
8 3471CARLOS DELGADO GARCIACLUB MEDINA TRIATLOABM01:37:471400:21:571101:05:3418.3001:27:31800:10:1600:00:3400:00:28
9 3894MARC CASANOVA SOLAC.N. REUS PLOMSABM01:38:091500:22:051401:06:0518.1601:28:10400:09:5900:00:3200:00:30
10 7011ARITZ ZUÑIGA MONREALLLICENCIA DE DIAABM01:38:412200:23:01901:04:4318.5401:27:442500:10:5700:00:4200:00:30
11 3614ROBERTO FIDALGO LOPEZCLUB MEDINA TRIATLOABM01:39:181800:22:221501:06:1118.1301:28:331800:10:4500:00:2800:00:23
12 702JOAN SERRA PONSTEAM CALELLA TRIATHLONABM01:40:211600:22:201901:07:4417.7201:30:041100:10:1700:00:3900:00:32
13 7005PAU MARZALLICENCIA DE DIAABM01:40:273300:23:361301:05:5918.1901:29:352200:10:5200:00:4800:00:30
14 2053EDUARD RODELLAS PLAC.N. VIC-ETBABM01:41:012900:23:241601:06:1718.1001:29:413800:11:2000:00:2700:00:30
15 4738LUIS BIELSA ALLOZAA.C. PARETS RAVET BIKEABM01:41:11800:21:262101:08:4917.4401:30:152400:10:5600:00:4100:00:31
16 3903MARC CIRERA CASELLASC.N. REUS PLOMSABM01:43:513800:23:502001:08:4517.4501:32:353700:11:1600:00:3100:00:30
17 4501VICTOR PEREZ VAZQUEZC.N. REUS PLOMSABM01:44:474100:23:541801:07:3417.7601:31:2810300:13:1900:00:4300:00:40
18 5907RAMSÉS MORENO RUIPÉREZINDEPENDENTABM01:44:502600:23:153001:10:2017.0601:33:353600:11:1500:00:4000:00:38
19 2153LLUIS MARTINEZ RAVETLLATA.C. PARETS RAVET BIKEABM01:45:024300:23:552601:09:4517.2001:33:404000:11:2200:00:4400:00:36
20 5896SALVADOR GRAN ESTEVECAMBRILS CLUB TRIATLOABM01:45:352400:23:063101:10:2217.0501:33:285700:12:0700:00:4100:00:35
21 3896JORDI FONT CORRIUSCLUB TRIATLO LLUÇANESABM01:45:533700:23:483201:10:3217.0101:34:204400:11:3300:00:4100:00:34
22 4957FABIÁN HUERTAS JUDERIASCLUB TRIATLO GRANOLLERSABM01:46:033900:23:513301:10:4216.9701:34:334200:11:3000:00:3600:00:34
23 3322JOAN QUINTANA CASANOVASCLUB TRI-BUABM01:46:194700:24:123401:10:5816.9101:35:103200:11:0900:00:4500:00:34
24 3447FERRAN BALCELLS PICARTCLUB TRIATLO L´EIX DE NAVABM01:47:494600:24:023801:12:2516.5701:36:273900:11:2200:00:3800:00:28
25 5898FRANCESC LOPEZ MARISCALCLUB MEDINA TRIATLOABM01:48:115200:24:353601:11:2816.7901:36:035800:12:0800:00:3300:00:33
26 3418SERGIO GALISTEO CABANILLAC. TRIATLO MONTORNESABM01:48:408800:26:292401:09:2217.3001:35:518800:12:4900:00:5600:00:36
27 3244JORDI TRUYOLS MORETÓC. TRIATLO MONTORNESABM01:50:352100:22:585201:17:0715.5601:40:051400:10:3000:01:0100:00:32
28 3354XAVIER LÓPEZ FERNÁNDEZCLUB TRIATLO GRANOLLERSABM01:51:073000:23:255001:16:5615.6001:40:211900:10:4600:00:4300:00:49
29 3759MANUEL CARRION RUBIOCLUB TRIATLO VALLIRANAABM01:51:495000:24:234501:15:3915.8601:40:024800:11:4700:00:5600:00:33
30 2237JOSE HOYOS ARCET-BIKES CLUB TRIATLOABM01:53:514200:23:545501:17:5515.4001:41:495200:12:0200:00:5000:00:38
31 2131ORIOL FORNS NADALA.C. PARETS RAVET BIKEABM01:54:115100:24:305901:18:3615.2701:43:062800:11:0500:00:4300:00:35
32 7007DAVID RAMOS VILANOVALLICENCIA DE DIAABM01:55:5012100:27:364201:15:0016.0001:42:3610000:13:1400:00:0000:00:00
33 8014JAVIER GARCIA PACHECOLLICENCIA DE DIAABM01:57:007100:25:406101:19:0915.1601:44:496000:12:1100:00:4800:00:37
34 2591JOSE LUIS MORENO RAMIREZCERDANYOLA CHABM01:58:356500:25:287001:22:3114.5401:47:591500:10:3600:00:5200:00:31
35 2513MARC FARRÉ CANALETASBR OPEN TEAMABM02:00:587700:26:066601:22:0514.6201:48:118500:12:4700:00:4800:00:42
36 5854ESTEVE OLIVÉ BOIXC. TRIATLO MONTORNESABM02:01:261200:21:539401:28:5013.5101:50:431700:10:4300:00:5900:00:39
37 3829ROGER PEIXÓ FITÉCLUB TRIATLO I RUN WITH LABM02:01:548000:26:146901:22:1514.5901:48:2910800:13:2500:01:0900:00:59
38 732OSCAR PEREZ SERRANOC.A. IGUALADAABM02:03:399800:27:027301:23:3914.3501:50:419200:12:5800:00:4100:00:42
39 2415CRISTIAN MARTÍNEZ MEDINACLUB TRIATLO MALGRATABM02:04:0612400:27:477401:23:4014.3401:51:277400:12:3900:01:0000:00:47
40 8003CESAR CLARIANA BLANCOLLICENCIA DE DIAABM02:05:539900:27:028001:25:1414.0801:52:1611300:13:3700:00:5100:00:36
41 3302JONATAN CARDENAS PEREZA.C. PARETS RAVET BIKEABM02:06:039500:26:488301:26:4013.8501:53:287100:12:3500:01:2700:01:01
42 5550GERMAN AGUD BORBONINDEPENDENTABM02:06:259300:26:418401:26:5613.8001:53:378700:12:4800:00:4800:00:44
43 3203DANIEL SANCHEZ GONZALEZC.N. REUS PLOMSABM02:07:1010500:27:128601:27:1913.7401:54:317600:12:3900:00:4100:00:40
44 1060JAVIER LORENTE SANCHEZCASBOI TRIATLOABM02:08:1812300:27:468201:26:2413.8901:54:1012800:14:0800:00:4800:00:41
45 2348JAUME GRACIA ALCACERC.N. TERRASSA-CICLES MOREABM02:08:579000:26:329501:29:2713.4201:55:599300:12:5800:01:1400:00:40
46 4472MARC BATLLE BASARTTEAM CALELLA TRIATHLONABM02:09:286800:25:369301:28:4713.5201:54:2314700:15:0500:00:4000:00:38
47 5887XAVIER GRAELLS MONTEC.E.T. DISTANCEABM02:11:1410400:27:109801:30:4413.2301:57:5410600:13:2000:00:5900:00:42
48 7003ALBERTO RAMÍREZ AMAT LLICENCIA DE DIAABM02:17:258500:26:2412701:37:5712.2502:04:219500:13:0400:01:1300:01:08
49 898JORDI FERRERAS JEREZC.E. TRIATHLONBCNABM02:17:5713700:28:4211601:36:0612.4902:04:489800:13:0900:01:1400:00:47
50 8008ALEJANDRO MARTÍN MÁRQUEZLLICENCIA DE DIAABM02:18:4211600:27:2512201:37:0012.3702:04:2513000:14:1700:00:0000:00:00
51 5824MARC RIERA BAILENC.N. VIC-ETBABM02:19:0614000:28:5611101:35:1612.6002:04:1214400:14:5400:00:4800:00:35
52 3410DAVID LÓPEZ POMAT-BIKES CLUB TRIATLOABM02:19:0910800:27:1512301:37:1612.3402:04:3114200:14:3800:00:5900:01:06
53 3340FRANCISCO PEREZ SANCHEZVILADECANS TRIATLOABM02:19:2410100:27:0412601:37:4212.2802:04:4614100:14:3800:00:4600:00:31
54 8009MIGUEL CASTRO ARANDALLICENCIA DE DIAABM02:20:2713000:28:1612901:38:1312.2202:06:2912200:13:5800:01:1900:01:23
55 2675DANIEL RODRÍGUEZ MATAVILADECANS TRIATLOABM02:21:1310900:27:1513401:39:5112.0202:07:0612700:14:0700:00:5300:00:47
56 3339SERGIO DE GRACIA MANCEÑIDC.E. NO TE PARESABM02:21:1312600:27:5513201:39:4012.0402:07:3511600:13:3800:00:5300:01:18
57 3407GERARD GOMIS MOURECAMBRILS CLUB TRIATLOABM02:21:369600:26:5514101:41:5011.7802:08:458900:12:5100:01:1200:00:56
58 2442MARC OLLÉ ALDEGUERTRIATLO PALLEJAABM02:22:2711500:27:2513801:41:1111.8602:08:3612000:13:5100:00:4800:00:42
59 3477CARLOS HERVERA TORRESPRAT TRIATLO 1994ABM02:23:0812700:28:0013701:40:4311.9102:08:4313500:14:2500:00:5500:00:44
60 5513PAU ALONSO ZAGUIRREVEC CYCLING & RUNABM02:25:2215100:30:1413501:39:5612.0102:10:1015000:15:1200:00:4800:00:34
61 7002ANGEL CASILLASLLICENCIA DE DIAABM02:26:0715300:31:3413001:38:2312.2002:09:5715900:16:1000:01:0400:00:54
62 3258JAIME ESCOLANO FERNANDEZCLUB TRIATLO VALLIRANAABM02:28:1210300:27:0814701:46:4511.2402:13:5313200:14:1900:01:1500:01:08
63 1697SERGI LOPEZ SILVAINDEPENDENTABM02:41:4813900:28:5616001:58:5310.0902:27:4912400:13:5900:02:2600:01:37
64 4111JAUME VALLS CURSELLASCERRR IGUALADAABM02:41:5315000:30:1315801:54:5910.4402:25:1216200:16:4100:01:2500:01:39
65 8007CARMELO TERUEL ROYOLLICENCIA DE DIAABM03:06:3515900:32:0916902:21:468.4602:53:557800:12:4000:01:3100:00:48
CATEGORIA: ABF
LLOCDORSALNOMCLUBCAT.T.META| P.Tram 1 || P.Tram 2 |Km/hTEMPS| P.Tram 3 |PARC_1PARC_2
1 5138LAURA TERRADAS ILLCLUB TRIATLO GRANOLLERSABF01:57:279100:26:325801:18:2615.3001:44:586500:12:2900:00:4000:00:36
2 5146NURIA FERRER CRUSELLESC.N. REUS PLOMSABF02:07:0812000:27:358501:26:5913.8001:54:347000:12:3400:00:5500:00:42
3 4088AINA PICAS ZORRILLAC.N. REUS PLOMSABF02:08:2111900:27:348901:27:4013.6901:55:149700:13:0700:01:0600:00:42
4 1801MERITXELL OBRADORS BARONSCERRR IGUALADAABF02:17:1915700:31:439901:31:0113.1802:02:4414000:14:3500:00:4900:00:34
5 5185ERICA CALATRAVA ZOMEÑOCERRR IGUALADAABF02:17:3913500:28:2711401:35:5212.5202:04:1910400:13:2000:00:4900:00:43
6 7016EMMA ANDERSON CRYNSLLICENCIA DE DIAABF02:19:2514200:28:5712001:36:4312.4102:05:4011900:13:4500:01:0100:00:52
7 1952MONTSE OLIVEROS OLIVEROSCLUB TRIATLO GRANOLLERSABF02:27:4415500:31:4013301:39:5012.0202:11:3016000:16:1400:00:4900:00:32
8 1811EMMA PÉREZ CUERVACERRR IGUALADAABF02:52:3116600:36:0616101:59:0410.0802:35:1016500:17:2100:00:5600:00:47
9 1947PATRICIA ARAMBURU ZUÑIGACLUB TRIATLÓ LLEIDAABF02:52:5916700:36:1215901:58:3710.1202:34:4916700:18:1000:01:1600:00:45
10 120LESLIE VIOLIC.N. REUS PLOMSABF02:55:1516200:33:5616302:04:159.6602:38:1116400:17:0400:00:3900:00:32
11 1812CAROLINA AYZA DONATOCLUB TRIATLO GRANOLLERSABF03:01:4315800:32:0516702:14:168.9402:46:2115100:15:2200:00:5400:00:36

FEDERACIÓ CATALANA DE TRIATLÓ
SEU CENTRAL I CORRESPONDÈNCIA: Rambla Guipúscoa 23-25 2on-D · 08018 Barcelona · Tel / Fax : 93 307 93 35
ATENCIÓ AL PÚBLIC: Passeig Joan de Borbó, 93 (Club Natació Barcelona) · 08039 Barcelona · Tel / Fax : 93 307 93 32